Aldwick, United Kingdom
Current Conditions -  °F | °C
As of 12:50 AM on Sunday 21 Dec 2014 (Local Time) from EGGD Reporting Station
Light Rain Light Rain  
Wind Chill: 37°   Ceiling: 1300
Heat Index: 43°   Visibility: 4mi
Dew Point: 41°   Wind: 12mph
Humidity: 93%   Direction: 230°SW
Pressure: 30.45"   Gusts: NA
Location:  51.34°N, 2.77°W
Report Text: EGGD 210050Z 23010KT 6000 -RA SCT003 BKN013 06/05 Q1031
Loading
Personal Weather Stations






























Interactive Weather Map New forecast layout! Learn more

10-Day Weather Forecast

Advertisements
Track Severe Weather on mobile